Time;durP1;ratioP1;P1;durP2;ratioP2;P2;SDS_P1;SDS_P2;PMS_P1;PMS_P2;Temp;Humidity;BMP_temperature;BMP_pressure;BME280_temperature;BME280_humidity;BME280_pressure;Samples;Min_cycle;Max_cycle;Signal;HPM_P1;HPM_P2
2020/12/03 00:00:40;;;;;;;36.80;19.70;;;4.00;99.90;;;;;;5111785;28;20024;-70
2020/12/03 00:03:13;;;;;;;31.77;17.15;;;4.00;99.90;;;;;;5111425;28;20381;-70
2020/12/03 00:05:40;;;;;;;31.67;18.50;;;4.00;99.90;;;;;;5110455;28;20149;-70
2020/12/03 00:08:06;;;;;;;31.50;17.80;;;4.10;99.90;;;;;;5110475;28;20024;-70
2020/12/03 00:10:31;;;;;;;32.63;19.65;;;4.00;99.90;;;;;;5110128;28;20024;-70
2020/12/03 00:13:04;;;;;;;33.45;19.40;;;4.00;99.90;;;;;;5110952;28;20024;-70
2020/12/03 00:15:30;;;;;;;32.80;18.58;;;4.00;99.90;;;;;;5109734;28;20024;-70
2020/12/03 00:17:56;;;;;;;32.83;19.10;;;4.00;99.90;;;;;;5093186;28;20031;-70
2020/12/03 00:20:22;;;;;;;30.55;17.80;;;4.00;99.90;;;;;;5110249;28;20020;-71
2020/12/03 00:22:47;;;;;;;33.28;19.13;;;4.00;99.90;;;;;;5110192;28;20065;-71
2020/12/03 00:25:14;;;;;;;30.80;17.67;;;4.00;99.90;;;;;;5111242;28;20031;-70
2020/12/03 00:27:48;;;;;;;31.42;18.73;;;3.90;99.90;;;;;;5111004;28;20023;-71
2020/12/03 00:30:13;;;;;;;29.00;17.05;;;4.00;99.90;;;;;;5109788;28;20051;-68
2020/12/03 00:32:39;;;;;;;34.50;18.42;;;4.00;99.90;;;;;;5109632;28;20032;-68
2020/12/03 00:35:04;;;;;;;30.67;18.17;;;4.00;99.90;;;;;;5111100;28;20038;-68
2020/12/03 00:37:30;;;;;;;33.63;19.73;;;4.00;99.90;;;;;;5109632;28;20081;-69
2020/12/03 00:39:55;;;;;;;29.55;17.30;;;4.00;99.90;;;;;;5110418;28;20156;-69
2020/12/03 00:42:21;;;;;;;29.08;17.10;;;4.10;99.90;;;;;;5110958;28;20028;-69
2020/12/03 00:44:46;;;;;;;29.40;17.35;;;4.00;99.90;;;;;;5110896;28;20111;-69
2020/12/03 00:47:12;;;;;;;31.55;17.48;;;4.00;99.90;;;;;;5110201;28;20059;-70
2020/12/03 00:49:38;;;;;;;28.60;17.02;;;4.10;99.90;;;;;;5110516;28;20046;-69
2020/12/03 00:52:03;;;;;;;29.98;18.30;;;4.10;99.90;;;;;;5109339;28;20027;-70
2020/12/03 00:54:29;;;;;;;28.77;16.92;;;4.10;99.90;;;;;;5110734;28;20024;-70
2020/12/03 00:56:54;;;;;;;31.25;17.70;;;4.10;99.90;;;;;;5108157;28;20350;-69
2020/12/03 00:59:20;;;;;;;30.90;17.80;;;4.00;99.90;;;;;;5094855;28;20020;-69
2020/12/03 01:01:45;;;;;;;30.35;17.75;;;4.00;99.90;;;;;;5097031;28;20024;-70
2020/12/03 01:04:11;;;;;;;32.20;17.85;;;4.00;99.90;;;;;;5096974;28;20028;-70
2020/12/03 01:06:36;;;;;;;28.95;18.10;;;3.90;99.90;;;;;;5096597;28;20423;-70
2020/12/03 01:09:03;;;;;;;28.75;16.65;;;4.00;99.90;;;;;;5096613;28;20031;-70
2020/12/03 01:11:28;;;;;;;30.40;17.58;;;4.00;99.90;;;;;;5096311;28;20027;-70
2020/12/03 01:13:54;;;;;;;26.95;16.17;;;4.00;99.90;;;;;;5096785;28;20027;-70
2020/12/03 01:16:21;;;;;;;25.67;15.75;;;4.00;99.90;;;;;;5094914;28;20024;-70
2020/12/03 01:18:47;;;;;;;30.85;17.85;;;4.00;99.90;;;;;;5096722;28;20028;-70
2020/12/03 01:21:17;;;;;;;28.70;16.73;;;4.00;99.90;;;;;;5096398;28;20039;-70
2020/12/03 01:23:43;;;;;;;26.77;16.40;;;4.00;99.90;;;;;;5096331;28;20488;-70
2020/12/03 01:26:08;;;;;;;27.52;17.15;;;4.00;99.90;;;;;;5094620;28;20035;-70
2020/12/03 01:28:34;;;;;;;27.73;17.20;;;4.00;99.90;;;;;;5096196;28;20024;-71
2020/12/03 01:31:03;;;;;;;27.42;17.20;;;4.10;99.90;;;;;;5096435;28;20024;-70
2020/12/03 01:33:29;;;;;;;28.45;16.63;;;4.00;99.90;;;;;;5094751;28;20065;-70
2020/12/03 01:35:55;;;;;;;25.63;14.93;;;4.00;99.90;;;;;;5095219;28;20020;-70
2020/12/03 01:38:21;;;;;;;27.88;16.08;;;4.00;99.90;;;;;;5096340;28;20039;-70
2020/12/03 01:40:51;;;;;;;29.52;16.35;;;4.00;99.90;;;;;;5094848;28;20479;-70
2020/12/03 01:43:17;;;;;;;29.75;17.05;;;4.10;99.90;;;;;;5095927;28;20376;-70
2020/12/03 01:46:00;;;;;;;26.98;16.48;;;4.10;99.90;;;;;;5095625;28;20089;-70
2020/12/03 01:48:50;;;;;;;26.27;16.02;;;4.10;99.90;;;;;;5095589;28;20055;-70
2020/12/03 01:51:23;;;;;;;29.08;16.65;;;4.10;99.90;;;;;;5095424;28;20107;-70
2020/12/03 01:53:50;;;;;;;;;;;4.10;99.90;;;;;;5096737;28;20016;-68
2020/12/03 01:56:28;;;;;;;26.02;15.52;;;4.10;99.90;;;;;;5095691;28;19941;-68
2020/12/03 01:58:55;;;;;;;25.58;15.35;;;4.10;99.90;;;;;;5095665;28;20024;-68
2020/12/03 02:01:22;;;;;;;26.27;15.95;;;4.20;99.90;;;;;;5095901;28;20522;-68
2020/12/03 02:03:49;;;;;;;28.17;16.50;;;4.10;99.90;;;;;;5094433;28;20107;-67
2020/12/03 02:06:19;;;;;;;28.52;16.88;;;4.10;99.90;;;;;;5093943;28;20035;-68
2020/12/03 02:08:45;;;;;;;30.45;16.95;;;4.10;99.90;;;;;;5095262;28;20016;-68
2020/12/03 02:11:11;;;;;;;30.58;16.25;;;4.10;99.90;;;;;;5095255;28;20070;-68
2020/12/03 02:13:37;;;;;;;30.73;17.10;;;4.10;99.90;;;;;;5093851;28;20024;-68
2020/12/03 02:16:03;;;;;;;29.27;17.08;;;4.10;99.90;;;;;;5093772;28;20388;-68
2020/12/03 02:18:28;;;;;;;29.88;16.58;;;4.10;99.90;;;;;;5094124;28;20028;-68
2020/12/03 02:20:54;;;;;;;28.23;16.75;;;4.10;99.90;;;;;;5076876;28;20035;-68
2020/12/03 02:23:19;;;;;;;31.48;17.50;;;4.10;99.90;;;;;;5093654;28;20031;-68
2020/12/03 02:25:45;;;;;;;33.22;17.83;;;4.10;99.90;;;;;;5093496;28;20035;-68
2020/12/03 02:28:11;;;;;;;33.58;18.45;;;4.20;99.90;;;;;;5095380;28;20465;-68
2020/12/03 02:30:42;;;;;;;34.28;18.98;;;4.10;99.90;;;;;;5095303;28;20024;-68
2020/12/03 02:33:07;;;;;;;38.22;19.33;;;4.00;99.90;;;;;;5093466;28;20024;-68
2020/12/03 02:35:33;;;;;;;35.58;19.45;;;4.00;99.90;;;;;;5093521;28;20097;-68
2020/12/03 02:37:59;;;;;;;33.20;18.92;;;4.00;99.90;;;;;;5095153;28;20087;-68
2020/12/03 02:40:24;;;;;;;35.05;19.27;;;4.00;99.90;;;;;;5095111;28;20051;-66
2020/12/03 02:42:50;;;;;;;35.28;19.15;;;4.00;99.90;;;;;;5093951;28;20024;-68
2020/12/03 02:45:16;;;;;;;37.67;20.40;;;4.10;99.90;;;;;;5093028;28;20492;-69
2020/12/03 02:47:42;;;;;;;37.00;20.92;;;4.00;99.90;;;;;;5093800;28;20106;-66
2020/12/03 02:50:07;;;;;;;35.30;20.13;;;4.00;99.90;;;;;;5093754;28;20048;-68
2020/12/03 02:52:33;;;;;;;39.60;21.00;;;4.00;99.90;;;;;;5094923;28;20020;-66
2020/12/03 02:54:59;;;;;;;35.60;19.70;;;4.00;99.90;;;;;;5094548;28;20028;-68
2020/12/03 02:57:24;;;;;;;36.55;19.40;;;4.00;99.90;;;;;;5094522;28;20103;-66
2020/12/03 02:59:50;;;;;;;36.65;20.65;;;4.00;99.90;;;;;;5094259;28;20036;-66
2020/12/03 03:02:16;;;;;;;36.58;19.50;;;4.10;99.90;;;;;;5093288;28;20021;-68
2020/12/03 03:04:42;;;;;;;37.63;20.58;;;4.10;99.90;;;;;;5094157;28;20024;-68
2020/12/03 03:07:08;;;;;;;37.53;20.80;;;4.00;99.90;;;;;;5093414;28;20035;-68
2020/12/03 03:09:34;;;;;;;38.08;20.88;;;3.90;99.90;;;;;;5093190;28;20056;-68
2020/12/03 03:12:00;;;;;;;33.70;18.42;;;4.00;99.90;;;;;;5094057;28;20100;-66
2020/12/03 03:14:26;;;;;;;35.05;18.90;;;4.00;99.90;;;;;;5094568;28;20012;-68
2020/12/03 03:16:52;;;;;;;36.72;19.80;;;4.10;99.90;;;;;;5094232;28;20097;-68
2020/12/03 03:19:18;;;;;;;34.20;19.10;;;4.10;99.90;;;;;;5094150;28;20172;-68
2020/12/03 03:21:45;;;;;;;31.73;18.80;;;4.10;99.90;;;;;;5092754;28;20274;-68
2020/12/03 03:24:10;;;;;;;36.65;20.38;;;4.10;99.90;;;;;;5092590;28;20030;-68
2020/12/03 03:26:36;;;;;;;37.42;19.85;;;4.10;99.90;;;;;;5094278;28;20036;-68
2020/12/03 03:29:03;;;;;;;34.22;19.30;;;4.00;99.90;;;;;;5093809;28;20099;-68
2020/12/03 03:31:29;;;;;;;37.60;19.70;;;4.10;99.90;;;;;;5094330;28;20016;-68
2020/12/03 03:33:54;;;;;;;34.40;18.40;;;4.10;99.90;;;;;;5092441;28;20027;-68
2020/12/03 03:36:20;;;;;;;33.72;18.58;;;4.10;99.90;;;;;;5092805;28;20024;-68
2020/12/03 03:38:46;;;;;;;37.38;19.85;;;4.10;99.90;;;;;;5092400;28;20464;-67
2020/12/03 03:41:11;;;;;;;37.08;19.55;;;4.20;99.90;;;;;;5094152;28;20028;-68
2020/12/03 03:43:37;;;;;;;35.08;18.70;;;4.20;99.90;;;;;;5094161;28;20024;-68
2020/12/03 03:46:04;;;;;;;34.15;18.52;;;4.20;99.90;;;;;;5093521;28;20047;-68
2020/12/03 03:48:29;;;;;;;38.58;19.63;;;4.20;99.90;;;;;;5075884;28;20035;-68
2020/12/03 03:50:55;;;;;;;34.45;18.70;;;4.20;99.90;;;;;;5094094;28;20020;-68
2020/12/03 03:53:21;;;;;;;34.50;18.90;;;4.10;99.90;;;;;;5093813;28;20101;-68
2020/12/03 03:55:46;;;;;;;35.15;18.73;;;4.20;99.90;;;;;;5092908;28;20031;-68
2020/12/03 03:58:12;;;;;;;38.28;19.55;;;4.20;99.90;;;;;;5075411;28;20047;-68
2020/12/03 04:00:43;;;;;;;37.63;18.95;;;4.20;99.90;;;;;;5094029;28;20032;-68
2020/12/03 04:03:13;;;;;;;34.15;18.90;;;4.20;99.90;;;;;;5092582;28;20031;-68
2020/12/03 04:05:40;;;;;;;37.00;19.10;;;4.20;99.90;;;;;;5093919;28;20051;-68
2020/12/03 04:08:06;;;;;;;36.13;18.38;;;4.20;99.90;;;;;;5093981;28;20023;-67
2020/12/03 04:10:32;;;;;;;35.83;19.05;;;4.30;99.90;;;;;;5075397;28;20020;-67
2020/12/03 04:12:58;;;;;;;35.90;18.38;;;4.30;99.90;;;;;;5093941;28;20373;-67
2020/12/03 04:15:24;;;;;;;41.00;19.35;;;4.20;99.90;;;;;;5093629;28;20028;-67
2020/12/03 04:17:49;;;;;;;39.42;20.42;;;4.20;99.90;;;;;;5093853;28;20021;-67
2020/12/03 04:20:15;;;;;;;37.47;19.08;;;4.20;99.90;;;;;;5093822;28;20145;-68
2020/12/03 04:22:43;;;;;;;36.95;19.05;;;4.20;99.90;;;;;;5092022;28;20027;-67
2020/12/03 04:25:09;;;;;;;36.53;18.63;;;4.20;99.90;;;;;;5092000;28;20020;-67
2020/12/03 04:27:34;;;;;;;34.65;17.33;;;4.20;99.90;;;;;;5093700;28;20024;-67
2020/12/03 04:30:00;;;;;;;37.38;18.42;;;4.20;99.90;;;;;;5075093;28;20026;-67
2020/12/03 04:32:25;;;;;;;30.73;16.75;;;4.20;99.90;;;;;;5093844;28;20020;-67
2020/12/03 04:34:51;;;;;;;30.85;16.48;;;4.30;99.90;;;;;;5096436;28;20020;-67
2020/12/03 04:37:17;;;;;;;31.38;17.02;;;4.30;99.90;;;;;;5097226;28;20385;-67
2020/12/03 04:39:42;;;;;;;32.42;17.75;;;4.30;99.90;;;;;;5097213;28;20036;-67
2020/12/03 04:42:21;;;;;;;37.67;19.73;;;4.20;99.90;;;;;;5096849;28;20034;-67
2020/12/03 04:44:51;;;;;;;35.22;18.63;;;4.20;99.90;;;;;;5097091;28;20549;-67
2020/12/03 04:47:46;;;;;;;37.13;18.10;;;4.10;99.90;;;;;;5095433;28;20529;-68
2020/12/03 04:53:36;;;;;;;38.63;19.73;;;4.10;99.90;;;;;;5112203;27;20347;-69
2020/12/03 04:56:07;;;;;;;38.05;18.77;;;4.10;99.90;;;;;;5111956;28;20427;-68
2020/12/03 04:59:04;;;;;;;35.42;18.08;;;4.20;99.90;;;;;;5111625;28;20081;-68
2020/12/03 05:02:01;;;;;;;33.75;17.48;;;4.20;99.90;;;;;;5110022;28;20563;-68
2020/12/03 05:04:53;;;;;;;33.10;17.02;;;4.20;99.90;;;;;;5111793;28;20024;-68
2020/12/03 05:07:23;;;;;;;32.75;16.92;;;4.20;99.90;;;;;;5111081;28;20050;-68
2020/12/03 05:09:55;;;;;;;31.33;16.63;;;4.20;99.90;;;;;;5111713;28;20070;-68
2020/12/03 05:12:27;;;;;;;33.28;16.27;;;4.20;99.90;;;;;;5110103;28;20051;-68
2020/12/03 05:15:12;;;;;;;21.95;11.35;;;4.20;99.90;;;;;;5111646;28;20016;-68
2020/12/03 05:18:02;;;;;;;28.45;16.00;;;4.10;99.90;;;;;;5111549;28;20436;-65
2020/12/03 05:20:37;;;;;;;32.50;16.50;;;4.10;99.90;;;;;;5110796;28;20035;-68
2020/12/03 05:23:10;;;;;;;31.27;16.55;;;4.10;99.90;;;;;;5110912;28;20393;-68
2020/12/03 05:25:36;;;;;;;;;;;4.20;99.90;;;;;;5110009;28;20024;-68
2020/12/03 05:28:25;;;;;;;31.50;15.65;;;4.20;99.90;;;;;;5109614;28;19995;-68
2020/12/03 05:30:55;;;;;;;29.42;15.80;;;4.20;99.90;;;;;;5111216;28;20020;-68
2020/12/03 05:33:22;;;;;;;32.95;17.77;;;4.20;99.90;;;;;;5111261;28;20095;-68
2020/12/03 05:35:47;;;;;;;30.73;16.25;;;4.20;99.90;;;;;;5110632;28;20020;-67
2020/12/03 05:38:20;;;;;;;29.27;15.98;;;4.20;99.90;;;;;;5092328;28;20035;-68
2020/12/03 05:40:54;;;;;;;30.48;16.27;;;4.30;99.90;;;;;;5092344;28;20051;-68
2020/12/03 05:43:21;;;;;;;33.10;16.42;;;4.20;99.90;;;;;;5110517;28;20031;-68
2020/12/03 05:45:47;;;;;;;30.75;16.42;;;4.20;99.90;;;;;;5110998;28;20044;-68
2020/12/03 05:48:17;;;;;;;28.55;15.93;;;4.20;99.90;;;;;;5111001;28;20023;-68
2020/12/03 05:50:43;;;;;;;29.80;15.73;;;4.20;99.90;;;;;;5092472;28;20020;-68
2020/12/03 05:55:47;;;;;;;27.20;14.60;;;4.20;99.90;;;;;;5112103;27;20633;-66
2020/12/03 05:58:33;;;;;;;26.80;14.20;;;4.20;99.90;;;;;;5110085;28;20035;-66
2020/12/03 06:01:18;;;;;;;27.23;14.93;;;4.20;99.90;;;;;;5144741;27;20077;-66
2020/12/03 06:04:19;;;;;;;26.48;15.30;;;4.20;99.90;;;;;;5110441;28;20024;-66
2020/12/03 06:07:00;;;;;;;28.52;15.13;;;4.20;99.90;;;;;;5111512;28;20422;-66
2020/12/03 06:12:31;;;;;;;27.83;14.68;;;4.20;99.90;;;;;;5091920;28;20398;-68
2020/12/03 06:15:22;;;;;;;26.92;14.48;;;4.20;99.90;;;;;;5091583;28;20032;-67
2020/12/03 06:18:01;;;;;;;25.95;14.50;;;4.20;99.90;;;;;;5090013;28;20063;-67
2020/12/03 06:20:52;;;;;;;22.15;13.25;;;4.30;99.90;;;;;;5073364;28;20024;-67
2020/12/03 06:23:57;;;;;;;24.98;13.25;;;4.20;99.90;;;;;;5089826;28;20111;-67
2020/12/03 06:26:46;;;;;;;26.10;13.80;;;4.20;99.90;;;;;;5091005;28;20036;-65
2020/12/03 06:29:43;;;;;;;24.58;12.98;;;4.30;99.90;;;;;;5091342;28;20020;-67
2020/12/03 06:32:48;;;;;;;25.13;12.90;;;4.30;99.90;;;;;;5089465;28;20370;-65
2020/12/03 06:35:24;;;;;;;22.90;12.20;;;4.30;99.90;;;;;;5090496;28;20028;-67
2020/12/03 06:38:02;;;;;;;23.10;12.82;;;4.30;99.90;;;;;;5089821;28;20016;-65
2020/12/03 06:40:33;;;;;;;22.48;12.25;;;4.20;99.90;;;;;;5088655;28;20082;-67
2020/12/03 06:43:24;;;;;;;22.00;11.55;;;4.20;99.90;;;;;;5088188;28;20024;-67
2020/12/03 06:46:29;;;;;;;23.55;13.40;;;4.20;99.90;;;;;;5090977;28;20352;-67
2020/12/03 06:49:35;;;;;;;21.85;12.82;;;4.10;99.90;;;;;;5087995;28;20111;-66
2020/12/03 06:52:29;;;;;;;21.75;11.85;;;4.10;99.90;;;;;;5089170;28;20043;-67
2020/12/03 06:58:23;;;;;;;20.52;11.55;;;3.90;99.90;;;;;;5121386;27;686945;-67
2020/12/03 07:01:28;;;;;;;21.00;11.63;;;3.90;99.90;;;;;;5119029;28;20093;-67
2020/12/03 07:04:33;;;;;;;18.70;10.93;;;3.90;99.90;;;;;;5121396;28;20024;-67
2020/12/03 07:07:28;;;;;;;19.90;10.98;;;3.90;99.90;;;;;;5132305;27;20023;-67
2020/12/03 07:10:26;;;;;;;17.27;9.77;;;3.90;99.90;;;;;;5130761;28;20139;-66
2020/12/03 07:26:37;;;;;;;18.95;10.38;;;3.90;99.90;;;;;;5109650;28;20180;-70
2020/12/03 07:29:05;;;;;;;19.73;10.82;;;3.90;99.90;;;;;;5095787;28;20028;-69
2020/12/03 07:31:36;;;;;;;20.42;11.20;;;3.90;99.90;;;;;;5079632;28;20059;-69
2020/12/03 07:34:27;;;;;;;15.68;10.48;;;3.90;99.90;;;;;;5110993;28;20020;-70
2020/12/03 07:37:04;;;;;;;16.08;9.57;;;3.90;99.90;;;;;;5105609;28;20032;-69
2020/12/03 07:39:35;;;;;;;23.30;10.75;;;3.90;99.90;;;;;;5111835;28;20020;-70
2020/12/03 07:42:09;;;;;;;19.73;10.45;;;3.90;99.90;;;;;;5099021;28;20052;-69
2020/12/03 07:44:42;;;;;;;17.77;10.52;;;3.90;99.90;;;;;;5093322;28;20427;-69
2020/12/03 07:47:32;;;;;;;16.20;10.65;;;4.00;99.90;;;;;;5097998;28;20039;-69
2020/12/03 07:49:59;;;;;;;19.08;10.40;;;4.00;99.90;;;;;;5099645;28;20028;-70
2020/12/03 07:52:30;;;;;;;17.45;10.75;;;4.00;99.90;;;;;;5102114;28;20496;-70
2020/12/03 07:55:25;;;;;;;20.27;11.82;;;4.00;99.90;;;;;;5101273;28;20033;-71
2020/12/03 07:57:54;;;;;;;20.33;11.73;;;4.10;99.90;;;;;;5101153;28;20032;-72
2020/12/03 08:00:32;;;;;;;19.73;11.27;;;4.10;99.90;;;;;;5090825;28;20100;-72
2020/12/03 08:03:00;;;;;;;21.67;11.32;;;4.10;99.90;;;;;;5102741;28;20023;-71
2020/12/03 08:08:27;;;;;;;17.23;10.68;;;4.30;99.90;;;;;;5131161;27;20354;-70
2020/12/03 08:10:54;;;;;;;17.35;10.32;;;4.50;99.90;;;;;;5113072;28;20367;-70
2020/12/03 08:16:03;;;;;;;17.00;9.30;;;4.80;99.90;;;;;;5111023;27;20412;-70
2020/12/03 08:18:46;;;;;;;15.65;9.85;;;4.80;99.90;;;;;;5109032;28;20028;-71
2020/12/03 08:21:15;;;;;;;21.50;9.93;;;4.80;99.90;;;;;;5109696;28;20016;-71
2020/12/03 08:23:50;;;;;;;18.33;10.52;;;4.70;99.90;;;;;;5109916;28;20020;-70
2020/12/03 08:26:25;;;;;;;16.35;10.38;;;4.70;99.90;;;;;;5110489;28;20047;-70
2020/12/03 08:28:50;;;;;;;16.70;10.10;;;4.60;99.90;;;;;;5113341;28;20065;-69
2020/12/03 08:33:54;;;;;;;16.42;10.15;;;4.60;99.90;;;;;;5112379;27;20117;-68
2020/12/03 08:36:22;;;;;;;16.67;9.85;;;4.60;99.90;;;;;;5108608;28;20037;-71
2020/12/03 08:38:53;;;;;;;17.65;10.63;;;4.60;99.90;;;;;;5109918;28;20035;-71
2020/12/03 08:41:21;;;;;;;15.38;9.38;;;4.60;99.90;;;;;;5110544;28;20016;-72
2020/12/03 08:43:50;;;;;;;17.42;10.63;;;4.60;99.90;;;;;;5110114;28;20020;-71
2020/12/03 08:46:20;;;;;;;15.65;10.32;;;4.60;99.90;;;;;;5109814;28;20530;-71
2020/12/03 08:48:46;;;;;;;17.08;9.75;;;4.60;99.90;;;;;;5110831;28;20110;-70
2020/12/03 08:51:13;;;;;;;18.60;10.20;;;4.50;99.90;;;;;;5110475;28;20048;-70
2020/12/03 08:53:45;;;;;;;16.80;10.25;;;4.60;99.90;;;;;;5110378;28;20020;-71
2020/12/03 08:56:24;;;;;;;19.85;10.20;;;4.60;99.90;;;;;;5110675;28;20478;-71
2020/12/03 09:01:37;;;;;;;19.13;10.52;;;4.60;99.90;;;;;;5091315;27;20411;-69
2020/12/03 09:04:05;;;;;;;18.43;10.60;;;4.60;99.90;;;;;;5090773;28;20089;-69
2020/12/03 09:06:33;;;;;;;18.40;10.88;;;4.60;99.90;;;;;;5090573;28;20032;-71
2020/12/03 09:09:01;;;;;;;19.35;10.65;;;4.70;99.90;;;;;;5090773;28;20051;-70
2020/12/03 09:11:31;;;;;;;15.75;10.43;;;4.70;99.90;;;;;;5090538;28;20021;-70
2020/12/03 09:13:57;;;;;;;16.85;10.30;;;4.70;99.90;;;;;;5091086;28;20016;-71
2020/12/03 09:16:26;;;;;;;17.60;9.93;;;4.60;99.90;;;;;;5090567;28;20504;-70
2020/12/03 09:18:52;;;;;;;17.73;10.15;;;4.60;99.90;;;;;;5089796;28;20024;-70
2020/12/03 09:21:33;;;;;;;18.23;10.48;;;4.60;99.90;;;;;;5090187;28;20081;-71
2020/12/03 09:23:59;;;;;;;16.40;10.38;;;4.70;99.90;;;;;;5090157;28;20020;-71
2020/12/03 09:26:29;;;;;;;19.77;10.73;;;4.70;99.90;;;;;;5090267;28;20040;-70
2020/12/03 09:28:55;;;;;;;16.70;9.70;;;4.60;99.90;;;;;;5090302;28;20020;-71
2020/12/03 09:31:22;;;;;;;16.35;10.48;;;4.60;99.90;;;;;;5089980;28;20016;-70
2020/12/03 09:33:50;;;;;;;17.63;10.75;;;4.60;99.90;;;;;;5090181;28;20021;-69
2020/12/03 09:36:15;;;;;;;17.65;10.30;;;4.60;99.90;;;;;;5089938;28;20027;-71
2020/12/03 09:38:42;;;;;;;16.92;10.32;;;4.60;99.90;;;;;;5089490;28;20381;-71
2020/12/03 09:41:09;;;;;;;16.77;10.27;;;4.60;99.90;;;;;;5089762;28;20465;-70
2020/12/03 09:43:39;;;;;;;18.15;10.43;;;4.70;99.90;;;;;;5089840;28;20024;-68
2020/12/03 09:46:06;;;;;;;16.83;10.45;;;4.70;99.90;;;;;;5090290;28;20058;-69
2020/12/03 09:48:33;;;;;;;19.20;10.68;;;4.60;99.90;;;;;;5087201;28;20445;-69
2020/12/03 09:51:02;;;;;;;15.93;10.00;;;4.60;99.90;;;;;;5089436;28;20020;-70
2020/12/03 09:53:31;;;;;;;18.65;10.68;;;4.60;99.90;;;;;;5089360;28;20051;-69
2020/12/03 09:56:01;;;;;;;18.42;10.95;;;4.60;99.90;;;;;;5089718;28;20090;-69
2020/12/03 09:58:27;;;;;;;20.73;11.00;;;4.60;99.90;;;;;;5089821;28;20366;-69
2020/12/03 10:00:54;;;;;;;18.10;10.48;;;4.50;99.90;;;;;;5088417;28;20054;-69
2020/12/03 10:03:43;;;;;;;17.10;10.45;;;4.50;99.90;;;;;;5088228;28;20435;-69
2020/12/03 10:06:18;;;;;;;16.58;10.30;;;4.50;99.90;;;;;;5088918;28;20070;-70
2020/12/03 10:09:18;;;;;;;15.77;9.77;;;4.60;99.90;;;;;;5087945;28;20024;-69
2020/12/03 10:12:10;;;;;;;15.82;10.30;;;4.50;99.90;;;;;;5081145;28;20021;-69
2020/12/03 10:15:03;;;;;;;20.00;11.30;;;4.50;99.90;;;;;;5074972;28;20028;-69
2020/12/03 10:17:37;;;;;;;17.02;10.25;;;4.50;99.90;;;;;;5075708;28;20469;-70
2020/12/03 10:20:03;;;;;;;18.90;11.15;;;4.50;99.90;;;;;;5074749;28;20389;-69
2020/12/03 10:22:39;;;;;;;20.08;11.40;;;4.50;99.90;;;;;;5074725;28;20017;-69
2020/12/03 10:25:23;;;;;;;17.83;11.07;;;4.50;99.90;;;;;;5075095;28;20470;-69
2020/12/03 10:28:12;;;;;;;18.35;11.07;;;4.50;99.90;;;;;;5075404;28;20024;-70
2020/12/03 10:30:39;;;;;;;20.83;11.95;;;4.50;99.90;;;;;;5075154;28;20064;-70
2020/12/03 10:33:12;;;;;;;22.13;12.15;;;4.60;99.90;;;;;;5075432;28;20036;-69
2020/12/03 10:35:47;;;;;;;20.73;12.32;;;4.50;99.90;;;;;;5078369;28;20051;-70
2020/12/03 10:38:23;;;;;;;22.05;12.45;;;4.60;99.90;;;;;;5072751;28;20031;-70
2020/12/03 10:40:54;;;;;;;17.88;11.63;;;4.50;99.90;;;;;;5073152;28;20386;-70
2020/12/03 10:43:27;;;;;;;19.15;12.27;;;4.50;99.90;;;;;;5053228;28;20021;-70
2020/12/03 10:45:57;;;;;;;19.40;12.32;;;4.50;99.90;;;;;;5073559;28;20492;-71
2020/12/03 10:48:43;;;;;;;22.48;11.77;;;4.50;99.90;;;;;;5073480;28;20028;-69
2020/12/03 10:51:09;;;;;;;22.27;12.02;;;4.50;99.90;;;;;;5058374;28;20038;-69
2020/12/03 10:53:38;;;;;;;20.42;12.13;;;4.50;99.90;;;;;;5074829;28;20052;-69
2020/12/03 10:56:06;;;;;;;20.77;11.55;;;4.60;99.90;;;;;;5073317;28;20085;-70
2020/12/03 10:59:01;;;;;;;17.33;10.98;;;4.50;99.90;;;;;;5073705;28;20140;-70
2020/12/03 11:01:31;;;;;;;17.75;10.75;;;4.60;99.90;;;;;;5072875;28;20094;-69
2020/12/03 11:03:59;;;;;;;19.38;11.88;;;4.60;99.90;;;;;;5073891;28;20354;-69
2020/12/03 11:06:28;;;;;;;16.75;10.38;;;4.60;99.90;;;;;;5071874;28;20032;-70
2020/12/03 11:08:56;;;;;;;18.80;11.52;;;4.60;99.90;;;;;;5072858;28;20025;-67
2020/12/03 11:11:22;;;;;;;21.42;11.88;;;4.60;99.90;;;;;;5074557;28;20103;-71
2020/12/03 11:13:48;;;;;;;22.05;12.10;;;4.60;99.90;;;;;;5072744;28;20028;-70
2020/12/03 11:16:17;;;;;;;19.83;11.95;;;4.60;99.90;;;;;;5071961;28;20062;-71
2020/12/03 11:18:48;;;;;;;19.45;11.15;;;4.70;99.90;;;;;;5072089;28;20025;-71
2020/12/03 11:21:21;;;;;;;21.65;10.90;;;4.80;99.90;;;;;;5072156;28;20093;-72
2020/12/03 11:24:02;;;;;;;17.30;10.77;;;4.80;99.90;;;;;;5073017;28;20012;-72
2020/12/03 11:26:33;;;;;;;17.60;11.35;;;4.80;99.90;;;;;;5071801;28;20037;-69
2020/12/03 11:29:15;;;;;;;18.85;11.00;;;4.80;99.90;;;;;;5071927;28;20485;-72
2020/12/03 11:31:42;;;;;;;16.33;9.93;;;4.90;99.90;;;;;;5073940;28;20064;-69
2020/12/03 11:34:08;;;;;;;18.30;10.65;;;5.00;99.90;;;;;;5072770;28;20034;-70
2020/12/03 11:36:37;;;;;;;16.45;10.55;;;5.00;99.90;;;;;;5071391;28;20116;-69
2020/12/03 11:39:06;;;;;;;16.73;10.15;;;5.00;99.90;;;;;;5070040;28;20012;-70
2020/12/03 11:42:12;;;;;;;17.40;10.35;;;5.10;99.90;;;;;;5072690;28;20020;-68
2020/12/03 11:44:44;;;;;;;17.05;10.18;;;5.30;99.90;;;;;;5071446;28;20048;-70
2020/12/03 11:49:53;;;;;;;;;;;5.30;99.90;;;;;;5074161;28;20062;-69
2020/12/03 11:52:19;;;;;;;16.25;10.27;;;5.40;99.90;;;;;;5073096;28;20008;-69
2020/12/03 11:54:46;;;;;;;19.65;10.48;;;5.50;99.90;;;;;;5072262;28;20159;-69
2020/12/03 11:57:15;;;;;;;16.02;9.65;;;5.60;99.90;;;;;;5072705;28;20052;-69
2020/12/03 11:59:41;;;;;;;17.35;10.10;;;5.50;99.90;;;;;;5071847;28;20105;-69
2020/12/03 12:02:09;;;;;;;18.00;10.13;;;5.50;99.90;;;;;;5055622;28;20027;-69
2020/12/03 12:05:00;;;;;;;15.25;10.25;;;5.50;99.90;;;;;;5072123;28;20053;-69
2020/12/03 12:07:31;;;;;;;18.05;10.45;;;5.70;99.90;;;;;;5071824;28;20033;-69
2020/12/03 12:12:28;;;;;;;16.63;10.60;;;5.70;99.90;;;;;;5072612;28;20032;-70
2020/12/03 12:14:54;;;;;;;17.90;10.52;;;5.70;99.90;;;;;;5071608;28;20035;-70
2020/12/03 12:17:20;;;;;;;19.58;10.98;;;5.70;99.90;;;;;;5071657;28;20024;-69
2020/12/03 12:19:49;;;;;;;18.27;11.57;;;5.60;99.90;;;;;;5070814;28;20032;-71
2020/12/03 12:22:15;;;;;;;20.30;10.77;;;5.50;99.90;;;;;;5050901;28;20028;-71
2020/12/03 12:24:43;;;;;;;17.73;10.80;;;5.60;99.90;;;;;;5071662;28;20071;-72
2020/12/03 12:27:09;;;;;;;17.08;10.63;;;5.50;99.90;;;;;;5071730;28;20020;-72
2020/12/03 12:29:35;;;;;;;16.23;9.20;;;5.60;99.90;;;;;;5072445;28;20427;-70
2020/12/03 12:32:01;;;;;;;17.85;10.75;;;5.50;99.90;;;;;;5073276;28;20021;-70
2020/12/03 12:34:27;;;;;;;19.08;10.52;;;5.50;99.90;;;;;;5054828;28;20085;-70
2020/12/03 12:36:53;;;;;;;16.85;10.40;;;5.60;99.90;;;;;;5071565;28;20470;-72
2020/12/03 12:39:19;;;;;;;16.45;10.73;;;5.50;99.90;;;;;;5071215;28;20021;-72
2020/12/03 12:42:01;;;;;;;19.65;11.15;;;5.60;99.90;;;;;;5055173;28;20393;-72
2020/12/03 12:44:27;;;;;;;22.85;12.32;;;5.60;99.90;;;;;;5068882;28;20026;-72
2020/12/03 12:46:55;;;;;;;21.00;11.45;;;5.50;99.90;;;;;;5071942;28;20111;-72
2020/12/03 12:49:21;;;;;;;19.52;11.80;;;5.50;99.90;;;;;;5071591;28;20024;-72
2020/12/03 12:51:47;;;;;;;23.80;11.38;;;5.50;99.90;;;;;;5073155;28;20078;-69
2020/12/03 12:54:12;;;;;;;20.65;11.63;;;5.50;99.90;;;;;;5072299;28;20023;-69
2020/12/03 12:56:39;;;;;;;17.65;11.40;;;5.60;99.90;;;;;;5071807;28;20017;-69
2020/12/03 12:59:04;;;;;;;19.63;12.55;;;5.50;99.90;;;;;;5072738;28;20091;-73
2020/12/03 13:01:30;;;;;;;23.35;13.65;;;5.50;99.90;;;;;;5072612;28;20074;-68
2020/12/03 13:03:55;;;;;;;20.25;11.43;;;5.50;99.90;;;;;;5051737;28;20154;-72
2020/12/03 13:06:21;;;;;;;23.38;11.90;;;5.50;99.90;;;;;;5069770;28;20099;-72
2020/12/03 13:08:47;;;;;;;18.33;10.88;;;5.50;99.90;;;;;;5071672;28;20583;-72
2020/12/03 13:11:12;;;;;;;21.98;10.88;;;5.50;99.90;;;;;;5070724;28;20016;-71
2020/12/03 13:13:38;;;;;;;17.42;10.15;;;5.70;99.90;;;;;;5070882;28;20473;-71
2020/12/03 13:16:03;;;;;;;17.48;9.88;;;5.60;99.90;;;;;;5071608;28;20029;-71
2020/12/03 13:18:29;;;;;;;16.35;10.00;;;5.60;99.90;;;;;;5054000;28;20031;-72
2020/12/03 13:20:55;;;;;;;16.42;9.77;;;5.70;99.90;;;;;;5053949;28;20058;-71
2020/12/03 13:23:21;;;;;;;16.25;9.50;;;5.70;99.90;;;;;;5070297;28;20094;-71
2020/12/03 13:25:47;;;;;;;17.05;10.43;;;5.70;99.90;;;;;;5071633;28;20025;-72
2020/12/03 13:28:12;;;;;;;20.38;11.07;;;5.70;99.90;;;;;;5053258;28;20058;-72
2020/12/03 13:30:38;;;;;;;18.80;10.40;;;5.80;99.90;;;;;;5047868;28;20040;-73
2020/12/03 13:33:03;;;;;;;20.23;10.55;;;5.80;99.90;;;;;;5061532;28;20420;-72
2020/12/03 13:35:29;;;;;;;18.40;9.98;;;5.80;99.90;;;;;;5070506;28;20028;-72
2020/12/03 13:37:54;;;;;;;19.60;10.68;;;5.70;99.90;;;;;;5070769;28;20059;-73
2020/12/03 13:40:21;;;;;;;19.52;10.40;;;5.70;99.90;;;;;;5051345;28;20500;-73